Time;durP1;ratioP1;P1;durP2;ratioP2;P2;SDS_P1;SDS_P2;PMS_P1;PMS_P2;Temp;Humidity;BMP_temperature;BMP_pressure;BME280_temperature;BME280_humidity;BME280_pressure;Samples;Min_cycle;Max_cycle;Signal;HPM_P1;HPM_P2
2023/10/08 00:02:22;;;;;;;;;;;;;;;7.23;84.58;96715.66;5102278;28;20318;-77
2023/10/08 00:04:50;;;;;;;;;;;;;;;7.19;84.41;96717.50;5084365;28;19920;-79
2023/10/08 00:07:27;;;;;;;;;;;;;;;7.17;84.60;96714.16;5083692;28;19944;-78
2023/10/08 00:09:53;;;;;;;;;;;;;;;7.13;84.23;96727.28;5078424;28;19916;-80
2023/10/08 00:12:19;;;;;;;;;;;;;;;7.12;84.45;96721.31;5087140;28;19988;-77
2023/10/08 00:14:49;;;;;;;;;;;;;;;7.12;84.25;96717.84;5087410;28;19973;-78
2023/10/08 00:17:16;;;;;;;;;;;;;;;7.12;84.21;96716.13;5065713;28;19971;-78
2023/10/08 00:19:45;;;;;;;;;;;;;;;7.12;84.12;96736.81;5094156;28;19916;-77
2023/10/08 00:22:13;;;;;;;;;;;;;;;7.12;83.90;96728.19;5102670;28;20086;-79
2023/10/08 00:24:49;;;;;;;;;;;;;;;7.10;84.24;96728.28;5080330;28;19916;-78
2023/10/08 00:27:17;;;;;;;;;;;;;;;7.09;84.01;96719.66;5083442;28;19920;-77
2023/10/08 00:29:47;;;;;;;;;;;;;;;7.11;84.10;96729.09;5068039;28;19916;-77
2023/10/08 00:32:13;;;;;;;;;;;;;;;7.06;83.99;96731.91;5098991;28;20003;-79
2023/10/08 00:34:41;;;;;;;;;;;;;;;7.05;83.78;96737.97;5064082;28;19952;-77
2023/10/08 00:37:09;;;;;;;;;;;;;;;7.05;83.66;96730.22;5083721;28;20031;-77
2023/10/08 00:39:39;;;;;;;;;;;;;;;7.02;83.83;96722.59;5100840;28;19916;-77
2023/10/08 00:42:08;;;;;;;;;;;;;;;7.04;83.73;96728.53;5050591;28;19926;-77
2023/10/08 00:45:13;;;;;;;;;;;;;;;7.06;83.62;96737.06;5099178;28;21400;-76
2023/10/08 00:47:28;;;;;;;;;;;;;;;7.08;83.91;96736.09;5072209;28;19921;-80
2023/10/08 00:50:03;;;;;;;;;;;;;;;7.07;83.96;96734.41;5066135;28;19931;-79
2023/10/08 00:52:41;;;;;;;;;;;;;;;7.09;83.43;96726.59;5080777;28;20277;-76
2023/10/08 00:55:53;;;;;;;;;;;;;;;7.07;83.54;96739.56;5078233;28;19924;-77
2023/10/08 00:57:58;;;;;;;;;;;;;;;7.08;83.44;96740.44;5059595;28;19932;-77
2023/10/08 01:00:32;;;;;;;;;;;;;;;7.06;83.71;96722.38;5079971;28;19920;-77
2023/10/08 01:03:01;;;;;;;;;;;;;;;7.02;83.38;96732.94;5077393;28;19916;-79
2023/10/08 01:05:42;;;;;;;;;;;;;;;6.97;83.47;96733.16;5074886;28;19917;-78
2023/10/08 01:08:12;;;;;;;;;;;;;;;6.92;83.69;96724.75;5067709;28;19920;-77
2023/10/08 01:10:43;;;;;;;;;;;;;;;6.89;83.44;96745.53;5074857;28;19923;-79
2023/10/08 01:13:15;;;;;;;;;;;;;;;6.85;83.49;96729.34;5091448;28;19943;-78
2023/10/08 01:15:44;;;;;;;;;;;;;;;6.82;83.34;96726.88;5090544;28;19967;-78
2023/10/08 01:18:30;;;;;;;;;;;;;;;6.79;83.48;96734.75;5081852;28;19927;-78
2023/10/08 01:21:04;;;;;;;;;;;;;;;6.80;83.42;96720.94;5099196;28;19920;-79
2023/10/08 01:23:31;;;;;;;;;;;;;;;6.82;83.56;96729.47;5076851;28;19958;-80
2023/10/08 01:26:03;;;;;;;;;;;;;;;6.87;82.95;96727.53;5076863;28;19938;-76
2023/10/08 01:28:29;;;;;;;;;;;;;;;6.84;83.23;96719.91;5076477;28;19928;-76
2023/10/08 01:30:59;;;;;;;;;;;;;;;6.86;83.33;96730.16;5076947;28;21375;-75
2023/10/08 01:33:29;;;;;;;;;;;;;;;6.93;83.68;96736.75;5079597;28;19916;-76
2023/10/08 01:36:02;;;;;;;;;;;;;;;6.97;83.00;96716.78;5082340;28;21665;-74
2023/10/08 01:38:28;;;;;;;;;;;;;;;6.97;83.43;96733.16;5063979;28;19922;-74
2023/10/08 01:40:56;;;;;;;;;;;;;;;6.94;83.10;96725.53;5095549;28;20286;-76
2023/10/08 01:43:22;;;;;;;;;;;;;;;6.90;83.73;96732.56;5084700;28;19916;-76
2023/10/08 01:45:51;;;;;;;;;;;;;;;6.95;83.47;96728.97;5079059;28;20408;-79
2023/10/08 01:48:20;;;;;;;;;;;;;;;7.00;83.83;96735.59;5080085;28;19955;-78
2023/10/08 01:50:47;;;;;;;;;;;;;;;6.95;83.54;96736.72;5079571;28;19942;-77
2023/10/08 01:53:16;;;;;;;;;;;;;;;6.73;83.51;96704.03;5079010;28;19927;-76
2023/10/08 01:55:47;;;;;;;;;;;;;;;6.78;83.55;96717.56;5086385;28;19920;-80
2023/10/08 01:58:16;;;;;;;;;;;;;;;6.72;83.62;96723.03;5065221;28;19916;-82
2023/10/08 02:00:45;;;;;;;;;;;;;;;6.69;83.46;96723.97;5078535;28;19974;-81
2023/10/08 02:03:16;;;;;;;;;;;;;;;6.65;83.93;96729.34;5065349;28;19916;-81
2023/10/08 02:05:42;;;;;;;;;;;;;;;6.56;83.87;96728.81;5052328;28;19917;-80
2023/10/08 02:08:09;;;;;;;;;;;;;;;6.54;83.70;96730.63;5078662;28;19927;-82
2023/10/08 02:10:40;;;;;;;;;;;;;;;6.52;83.86;96729.03;5083641;28;19978;-81
2023/10/08 02:13:08;;;;;;;;;;;;;;;6.52;83.78;96735.00;5080888;28;19917;-79
2023/10/08 02:15:36;;;;;;;;;;;;;;;6.52;83.65;96729.03;5080135;28;19927;-77
2023/10/08 02:18:08;;;;;;;;;;;;;;;6.50;83.58;96729.09;5079067;28;19916;-78
2023/10/08 02:20:39;;;;;;;;;;;;;;;6.48;83.54;96715.41;5094381;28;19916;-78
2023/10/08 02:23:05;;;;;;;;;;;;;;;6.48;83.65;96738.66;5090457;28;19938;-78
2023/10/08 02:25:31;;;;;;;;;;;;;;;6.45;83.30;96725.84;5062037;28;19923;-78
2023/10/08 02:28:03;;;;;;;;;;;;;;;6.41;83.49;96730.28;5081596;28;20959;-78
2023/10/08 02:30:29;;;;;;;;;;;;;;;6.42;83.78;96734.56;5079895;28;19917;-78
2023/10/08 02:32:55;;;;;;;;;;;;;;;6.39;83.06;96736.44;5080736;28;19951;-78
2023/10/08 02:35:22;;;;;;;;;;;;;;;6.33;83.45;96732.38;5064531;28;19943;-77
2023/10/08 02:37:48;;;;;;;;;;;;;;;6.33;83.65;96715.09;5062667;28;19927;-77
2023/10/08 02:40:27;;;;;;;;;;;;;;;6.35;83.39;96727.13;5061051;28;19916;-78
2023/10/08 02:43:00;;;;;;;;;;;;;;;6.35;83.51;96732.28;5080638;28;19955;-78
2023/10/08 02:45:26;;;;;;;;;;;;;;;6.32;83.00;96731.50;5078540;28;19917;-78
2023/10/08 02:47:52;;;;;;;;;;;;;;;6.34;83.52;96734.03;5078892;28;19923;-78
2023/10/08 02:50:22;;;;;;;;;;;;;;;6.34;82.71;96739.22;5092344;28;19916;-79
2023/10/08 02:52:51;;;;;;;;;;;;;;;6.36;83.12;96728.81;5093141;28;19931;-76
2023/10/08 02:55:36;;;;;;;;;;;;;;;6.29;82.68;96720.47;5047650;28;19926;-74
2023/10/08 02:58:02;;;;;;;;;;;;;;;6.24;82.80;96723.25;5075214;28;19923;-75
2023/10/08 03:00:34;;;;;;;;;;;;;;;6.21;82.87;96725.09;5082983;28;19920;-75
2023/10/08 03:03:09;;;;;;;;;;;;;;;6.17;82.36;96735.56;5081974;28;19938;-73
2023/10/08 03:05:35;;;;;;;;;;;;;;;6.08;82.41;96725.59;5077734;28;20042;-73
2023/10/08 03:08:10;;;;;;;;;;;;;;;6.06;82.31;96726.56;5045384;28;19920;-75
2023/10/08 03:10:37;;;;;;;;;;;;;;;6.02;82.33;96728.41;5083044;28;19971;-74
2023/10/08 03:13:09;;;;;;;;;;;;;;;6.00;82.62;96715.59;5080560;28;19916;-78
2023/10/08 03:15:40;;;;;;;;;;;;;;;6.01;82.31;96709.53;5091868;28;20100;-74
2023/10/08 03:18:15;;;;;;;;;;;;;;;5.99;82.47;96711.28;5077636;28;20416;-74
2023/10/08 03:20:46;;;;;;;;;;;;;;;5.96;82.23;96726.06;5080712;28;19981;-72
2023/10/08 03:23:25;;;;;;;;;;;;;;;5.88;81.91;96729.78;5068977;28;19920;-75
2023/10/08 03:28:34;;;;;;;;;;;;;;;5.79;82.53;96730.13;5100215;28;19916;-72
2023/10/08 03:31:13;;;;;;;;;;;;;;;5.81;82.17;96715.41;5063422;28;19924;-74
2023/10/08 03:33:49;;;;;;;;;;;;;;;5.77;81.71;96723.34;5078536;28;19916;-73
2023/10/08 03:36:21;;;;;;;;;;;;;;;5.77;82.15;96718.19;5081397;28;19978;-76
2023/10/08 03:38:52;;;;;;;;;;;;;;;5.78;81.66;96720.69;5094275;28;20462;-74
2023/10/08 03:41:29;;;;;;;;;;;;;;;5.83;81.65;96728.28;5085750;28;19919;-74
2023/10/08 03:44:17;;;;;;;;;;;;;;;5.86;81.65;96728.13;5080363;28;21692;-74
2023/10/08 03:46:46;;;;;;;;;;;;;;;5.92;81.34;96737.41;5079070;28;19916;-75
2023/10/08 03:49:31;;;;;;;;;;;;;;;5.96;81.89;96720.91;5096957;28;20409;-74
2023/10/08 03:51:57;;;;;;;;;;;;;;;6.00;81.65;96718.16;5084192;28;19916;-76
2023/10/08 03:54:35;;;;;;;;;;;;;;;6.02;81.27;96729.28;5083669;28;19999;-76
2023/10/08 03:57:03;;;;;;;;;;;;;;;6.05;81.34;96728.31;5080034;28;20271;-77
2023/10/08 03:59:30;;;;;;;;;;;;;;;6.07;81.06;96733.41;5080581;28;20342;-77
2023/10/08 04:04:53;;;;;;;;;;;;;;;6.05;81.47;96727.47;5049116;28;19916;-78
2023/10/08 04:07:38;;;;;;;;;;;;;;;6.03;80.91;96730.97;5067619;28;19945;-80
2023/10/08 04:12:43;;;;;;;;;;;;;;;5.97;81.36;96723.41;5085840;28;19920;-75
2023/10/08 04:15:09;;;;;;;;;;;;;;;6.03;81.37;96735.25;5062293;28;19920;-76
2023/10/08 04:17:44;;;;;;;;;;;;;;;6.10;81.62;96717.78;5081667;28;19931;-75
2023/10/08 04:23:01;;;;;;;;;;;;;;;6.14;81.24;96727.09;5067603;28;19916;-73
2023/10/08 04:25:31;;;;;;;;;;;;;;;6.13;81.35;96723.69;5066326;28;19987;-75
2023/10/08 04:27:58;;;;;;;;;;;;;;;6.19;80.97;96722.59;5064008;28;19920;-75
2023/10/08 04:30:32;;;;;;;;;;;;;;;6.25;81.14;96726.66;5067314;28;19942;-76
2023/10/08 04:33:08;;;;;;;;;;;;;;;6.29;81.29;96729.03;5085381;28;19916;-76
2023/10/08 04:35:47;;;;;;;;;;;;;;;6.30;81.36;96727.31;5070190;28;19921;-75
2023/10/08 04:38:18;;;;;;;;;;;;;;;6.25;80.96;96724.06;5081019;28;19919;-75
2023/10/08 04:40:48;;;;;;;;;;;;;;;6.20;80.99;96724.28;5078794;28;19992;-77
2023/10/08 04:43:15;;;;;;;;;;;;;;;6.14;81.13;96732.25;5062456;28;19927;-78
2023/10/08 04:45:41;;;;;;;;;;;;;;;6.10;80.97;96731.53;5067911;28;19917;-75
2023/10/08 04:48:10;;;;;;;;;;;;;;;6.09;80.86;96729.88;5079249;28;20386;-75
2023/10/08 04:50:37;;;;;;;;;;;;;;;5.88;80.86;96690.22;5099767;28;20018;-76
2023/10/08 04:53:07;;;;;;;;;;;;;;;6.14;80.54;96725.38;5097404;28;19915;-76
2023/10/08 04:55:34;;;;;;;;;;;;;;;6.18;80.41;96723.50;5093253;28;19920;-75
2023/10/08 04:58:04;;;;;;;;;;;;;;;6.19;80.42;96730.34;5079623;28;19931;-76
2023/10/08 05:03:43;;;;;;;;;;;;;;;6.24;80.35;96731.00;5068713;28;19920;-73
2023/10/08 05:06:16;;;;;;;;;;;;;;;6.29;80.34;96729.03;5063591;28;19923;-78
2023/10/08 05:08:58;;;;;;;;;;;;;;;6.33;80.07;96735.78;5072833;28;19922;-77
2023/10/08 05:30:31;;;;;;;;;;;;;;;6.22;78.80;96709.56;5067398;28;19931;-83
2023/10/08 05:38:16;;;;;;;;;;;;;;;7.04;78.28;96752.66;5083258;28;19978;-79
2023/10/08 06:03:07;;;;;;;;;;;;;;;6.81;76.97;96778.66;5082809;28;19923;-71
2023/10/08 06:05:47;;;;;;;;;;;;;;;6.91;76.66;96765.28;5067602;28;19928;-80
2023/10/08 06:08:38;;;;;;;;;;;;;;;7.07;76.84;96769.78;5066665;28;20401;-71
2023/10/08 06:11:07;;;;;;;;;;;;;;;7.07;75.93;96770.59;5083418;28;19916;-72
2023/10/08 06:13:55;;;;;;;;;;;;;;;7.05;75.97;96763.84;5082761;28;19920;-72
2023/10/08 06:19:16;;;;;;;;;;;;;;;7.01;75.20;96778.66;5079955;28;20010;-70
2023/10/08 06:21:45;;;;;;;;;;;;;;;7.26;75.87;96774.16;5078338;28;19939;-71
2023/10/08 06:24:16;;;;;;;;;;;;;;;7.44;75.92;96781.09;5066885;28;20442;-70
2023/10/08 06:26:48;;;;;;;;;;;;;;;7.51;74.71;96773.91;5055482;28;19920;-72
2023/10/08 06:29:42;;;;;;;;;;;;;;;7.50;74.82;96777.41;5077112;28;20823;-69
2023/10/08 06:32:20;;;;;;;;;;;;;;;7.54;75.05;96782.38;5068748;28;19916;-74
2023/10/08 06:34:47;;;;;;;;;;;;;;;7.58;74.51;96782.25;5065911;28;19901;-72
2023/10/08 06:37:24;;;;;;;;;;;;;;;7.66;74.70;96777.53;5063146;28;19970;-72
2023/10/08 06:39:52;;;;;;;;;;;;;;;7.73;74.14;96778.09;5081132;28;19923;-73
2023/10/08 06:42:21;;;;;;;;;;;;;;;7.62;73.56;96789.78;5076730;28;19916;-72
2023/10/08 06:44:48;;;;;;;;;;;;;;;7.54;73.48;96792.72;5082158;28;19927;-69
2023/10/08 06:47:15;;;;;;;;;;;;;;;7.42;72.85;96788.09;5081292;28;19917;-70
2023/10/08 06:49:46;;;;;;;;;;;;;;;7.38;72.74;96794.31;5080592;28;19916;-71
2023/10/08 06:52:13;;;;;;;;;;;;;;;7.34;72.60;96790.19;5086554;28;20015;-70
2023/10/08 06:54:48;;;;;;;;;;;;;;;7.25;72.03;96791.44;5091259;28;19927;-74
2023/10/08 06:57:14;;;;;;;;;;;;;;;7.09;71.55;96793.81;5079682;28;20317;-72
2023/10/08 06:59:50;;;;;;;;;;;;;;;7.02;71.70;96795.00;5089596;28;19923;-71
2023/10/08 07:02:21;;;;;;;;;;;;;;;7.01;71.29;96791.56;5091547;28;19923;-72
2023/10/08 07:04:47;;;;;;;;;;;;;;;6.99;71.13;96798.56;5080405;28;19903;-76
2023/10/08 07:07:18;;;;;;;;;;;;;;;6.85;71.18;96804.31;5092104;28;19974;-76
2023/10/08 07:09:45;;;;;;;;;;;;;;;6.69;70.84;96798.91;5088315;28;19986;-77
2023/10/08 07:12:14;;;;;;;;;;;;;;;6.58;70.89;96817.44;5092924;28;21482;-70
2023/10/08 07:14:46;;;;;;;;;;;;;;;6.45;70.74;96808.50;5066624;28;20378;-71
2023/10/08 07:17:19;;;;;;;;;;;;;;;6.44;70.56;96799.09;5091328;28;19920;-72
2023/10/08 07:19:50;;;;;;;;;;;;;;;6.41;70.79;96818.09;5080860;28;19917;-70
2023/10/08 07:22:28;;;;;;;;;;;;;;;6.47;70.93;96820.47;5083759;28;19964;-71
2023/10/08 07:24:57;;;;;;;;;;;;;;;6.57;70.96;96825.28;5084227;28;19916;-73
2023/10/08 07:27:29;;;;;;;;;;;;;;;6.62;70.98;96826.75;5085120;28;20390;-71
2023/10/08 07:30:10;;;;;;;;;;;;;;;6.59;70.33;96810.56;5065691;28;19938;-75
2023/10/08 07:32:38;;;;;;;;;;;;;;;6.64;70.99;96816.34;5085874;28;19916;-80
2023/10/08 07:35:25;;;;;;;;;;;;;;;6.65;70.11;96817.19;5079340;28;19927;-75
2023/10/08 07:37:58;;;;;;;;;;;;;;;6.61;70.00;96822.50;5083884;28;19961;-76
2023/10/08 07:40:30;;;;;;;;;;;;;;;6.58;70.47;96814.84;5095474;28;19932;-74
2023/10/08 07:43:00;;;;;;;;;;;;;;;6.66;70.41;96826.63;5087442;28;20035;-74
2023/10/08 07:45:25;;;;;;;;;;;;;;;6.63;70.11;96817.25;5079978;28;19922;-72
2023/10/08 07:47:52;;;;;;;;;;;;;;;6.55;70.28;96830.47;5067261;28;20019;-73
2023/10/08 07:50:19;;;;;;;;;;;;;;;6.63;70.60;96830.16;5084981;28;19916;-76
2023/10/08 07:52:48;;;;;;;;;;;;;;;7.00;71.11;96828.69;5104346;28;19923;-82
2023/10/08 07:55:19;;;;;;;;;;;;;;;7.31;70.44;96824.78;5087053;28;19920;-74
2023/10/08 07:57:45;;;;;;;;;;;;;;;7.51;70.23;96834.25;5087190;28;19972;-72
2023/10/08 08:00:26;;;;;;;;;;;;;;;7.67;70.08;96828.41;5068266;28;19963;-78
2023/10/08 08:02:54;;;;;;;;;;;;;;;7.62;68.90;96831.19;5095858;28;19917;-77
2023/10/08 08:05:21;;;;;;;;;;;;;;;7.43;69.76;96838.09;5087126;28;19919;-79
2023/10/08 08:07:49;;;;;;;;;;;;;;;7.37;69.16;96841.78;5080459;28;19907;-73
2023/10/08 08:10:14;;;;;;;;;;;;;;;7.21;69.08;96839.84;5077756;28;19962;-75
2023/10/08 08:12:40;;;;;;;;;;;;;;;7.14;68.98;96859.13;5083272;28;19939;-73
2023/10/08 08:15:14;;;;;;;;;;;;;;;7.24;69.35;96847.47;5083897;28;19956;-74
2023/10/08 08:17:41;;;;;;;;;;;;;;;7.35;68.75;96851.38;5082053;28;19920;-77
2023/10/08 08:20:17;;;;;;;;;;;;;;;7.42;68.79;96850.19;5080580;28;20344;-75
2023/10/08 08:22:49;;;;;;;;;;;;;;;7.48;68.79;96856.84;5075489;28;19916;-74
2023/10/08 08:28:17;;;;;;;;;;;;;;;7.58;69.09;96862.47;5049539;28;19991;-79
2023/10/08 08:30:53;;;;;;;;;;;;;;;7.45;68.44;96852.63;5091376;28;19923;-73
2023/10/08 08:33:46;;;;;;;;;;;;;;;7.44;68.55;96845.78;5083115;28;19916;-77
2023/10/08 08:36:14;;;;;;;;;;;;;;;7.47;68.16;96850.81;5087138;28;19920;-79
2023/10/08 08:38:47;;;;;;;;;;;;;;;7.40;68.14;96854.56;5082094;28;19942;-77
2023/10/08 08:41:17;;;;;;;;;;;;;;;7.39;68.19;96852.91;5058506;28;19918;-76
2023/10/08 08:44:06;;;;;;;;;;;;;;;7.30;67.54;96869.66;5082432;28;19923;-75
2023/10/08 08:46:35;;;;;;;;;;;;;;;7.43;67.89;96859.63;5081371;28;19916;-76
2023/10/08 08:49:04;;;;;;;;;;;;;;;7.55;67.79;96873.78;5088522;28;19916;-77
2023/10/08 08:51:31;;;;;;;;;;;;;;;7.71;67.83;96866.19;5101629;28;19924;-77
2023/10/08 08:54:09;;;;;;;;;;;;;;;7.72;67.30;96878.22;5068782;28;19916;-71
2023/10/08 08:56:41;;;;;;;;;;;;;;;7.62;66.46;96864.00;5065960;28;19931;-77
2023/10/08 08:59:17;;;;;;;;;;;;;;;7.54;66.60;96862.59;5068618;28;19916;-79
2023/10/08 09:01:44;;;;;;;;;;;;;;;7.54;66.73;96870.34;5086775;28;19955;-75
2023/10/08 09:04:29;;;;;;;;;;;;;;;7.54;67.03;96870.34;5084263;28;19920;-74
2023/10/08 09:07:04;;;;;;;;;;;;;;;7.69;66.87;96873.19;5081147;28;19925;-80
2023/10/08 09:09:44;;;;;;;;;;;;;;;7.67;65.82;96877.56;5085854;28;19916;-81
2023/10/08 09:12:10;;;;;;;;;;;;;;;7.50;66.05;96868.81;5083589;28;19960;-77
2023/10/08 09:14:38;;;;;;;;;;;;;;;7.68;66.35;96882.69;5083096;28;19947;-79
2023/10/08 09:17:05;;;;;;;;;;;;;;;7.92;65.71;96863.56;5098697;28;19943;-74
2023/10/08 09:19:38;;;;;;;;;;;;;;;8.23;65.41;96881.13;5084943;28;20336;-76
2023/10/08 09:22:08;;;;;;;;;;;;;;;8.25;64.74;96883.66;5098371;28;19951;-80
2023/10/08 09:24:41;;;;;;;;;;;;;;;8.18;64.67;96879.66;5059509;28;19916;-79
2023/10/08 09:27:08;;;;;;;;;;;;;;;8.13;64.49;96879.88;5084793;28;19916;-75
2023/10/08 09:29:41;;;;;;;;;;;;;;;8.03;64.20;96882.03;5099182;28;19916;-78
2023/10/08 09:32:23;;;;;;;;;;;;;;;7.83;64.07;96882.94;5073594;28;19916;-81
2023/10/08 09:35:02;;;;;;;;;;;;;;;7.54;63.84;96897.97;5090469;28;19920;-83
2023/10/08 09:37:39;;;;;;;;;;;;;;;7.48;64.35;96908.59;5109001;28;19955;-82
2023/10/08 09:40:10;;;;;;;;;;;;;;;7.61;64.03;96903.75;5083745;28;19921;-75
2023/10/08 09:42:56;;;;;;;;;;;;;;;7.67;64.21;96903.47;5084636;28;19897;-76
2023/10/08 09:45:22;;;;;;;;;;;;;;;7.68;64.48;96874.09;5081863;28;19959;-75
2023/10/08 09:47:52;;;;;;;;;;;;;;;7.72;64.02;96905.88;5085043;28;19916;-72
2023/10/08 09:50:23;;;;;;;;;;;;;;;7.65;63.75;96900.09;5082772;28;19923;-68
2023/10/08 09:53:00;;;;;;;;;;;;;;;7.52;63.77;96887.69;5062184;28;19917;-72
2023/10/08 09:55:30;;;;;;;;;;;;;;;7.52;63.92;96895.47;5096566;28;19927;-72
2023/10/08 09:58:07;;;;;;;;;;;;;;;7.53;63.79;96912.66;5066438;28;19947;-69
2023/10/08 10:00:33;;;;;;;;;;;;;;;7.42;63.61;96907.09;5099797;28;20026;-68
2023/10/08 10:03:02;;;;;;;;;;;;;;;7.35;63.52;96908.28;5081141;28;19920;-70
2023/10/08 10:05:34;;;;;;;;;;;;;;;7.09;63.43;96897.25;5078198;28;19963;-72
2023/10/08 10:08:00;;;;;;;;;;;;;;;6.96;63.50;96912.44;5080228;28;20389;-73
2023/10/08 10:10:38;;;;;;;;;;;;;;;6.97;63.51;96902.91;5102275;28;19923;-77
2023/10/08 10:13:07;;;;;;;;;;;;;;;6.83;63.22;96925.00;5098354;28;20358;-82
2023/10/08 10:15:38;;;;;;;;;;;;;;;6.79;64.05;96931.19;5086435;28;19920;-76
2023/10/08 10:18:23;;;;;;;;;;;;;;;6.82;63.37;96923.31;5088071;28;19908;-77
2023/10/08 10:20:54;;;;;;;;;;;;;;;6.83;63.24;96919.84;5083915;28;20344;-79
2023/10/08 10:23:36;;;;;;;;;;;;;;;6.81;63.61;96928.56;5075587;28;19916;-79
2023/10/08 10:26:24;;;;;;;;;;;;;;;6.69;63.34;96920.38;5067671;28;19943;-77
2023/10/08 10:29:15;;;;;;;;;;;;;;;6.59;63.17;96945.72;5082993;28;20153;-77
2023/10/08 10:31:52;;;;;;;;;;;;;;;6.49;63.90;96928.91;5080445;28;19920;-76
2023/10/08 10:34:27;;;;;;;;;;;;;;;6.67;64.36;96940.25;5071748;28;20340;-76
2023/10/08 10:40:01;;;;;;;;;;;;;;;7.12;64.12;96928.16;5039585;28;19939;-78
2023/10/08 10:42:38;;;;;;;;;;;;;;;7.06;63.97;96942.16;5039007;28;20363;-76
2023/10/08 10:45:09;;;;;;;;;;;;;;;6.97;64.17;96939.97;5065936;28;19924;-75
2023/10/08 10:47:43;;;;;;;;;;;;;;;7.01;64.54;96938.09;5095100;28;19963;-74
2023/10/08 10:50:26;;;;;;;;;;;;;;;7.10;64.09;96940.31;5086877;28;20003;-78
2023/10/08 10:52:53;;;;;;;;;;;;;;;7.05;64.20;96934.47;5067299;28;19916;-80
2023/10/08 10:55:24;;;;;;;;;;;;;;;7.02;64.74;96942.38;5096230;28;19963;-73
2023/10/08 10:57:56;;;;;;;;;;;;;;;6.83;64.14;96939.69;5087670;28;19927;-76
2023/10/08 11:03:04;;;;;;;;;;;;;;;6.69;64.99;96935.88;5104031;28;19951;-76
2023/10/08 11:05:37;;;;;;;;;;;;;;;6.74;64.99;96943.44;5088767;28;19938;-78
2023/10/08 11:08:14;;;;;;;;;;;;;;;6.62;65.13;96944.78;5086290;28;19943;-76
2023/10/08 11:10:53;;;;;;;;;;;;;;;6.41;65.02;96949.00;5083848;28;19920;-80
2023/10/08 11:13:28;;;;;;;;;;;;;;;6.24;65.26;96942.75;5088485;28;20057;-78
2023/10/08 11:15:59;;;;;;;;;;;;;;;6.07;66.03;96951.09;5089688;28;19927;-76
2023/10/08 11:21:25;;;;;;;;;;;;;;;5.81;66.51;96946.84;5087737;28;19917;-78
2023/10/08 11:23:55;;;;;;;;;;;;;;;5.68;66.17;96961.91;5092955;28;20427;-78
2023/10/08 11:26:38;;;;;;;;;;;;;;;5.72;66.70;96943.69;5052229;28;19927;-82
2023/10/08 11:29:14;;;;;;;;;;;;;;;5.80;67.08;96964.06;5085287;28;19916;-81
2023/10/08 11:31:41;;;;;;;;;;;;;;;5.83;67.23;96955.38;5068128;28;19923;-82
2023/10/08 11:34:13;;;;;;;;;;;;;;;5.80;67.56;96955.47;5075894;28;19980;-73
2023/10/08 11:36:53;;;;;;;;;;;;;;;5.72;67.56;96959.16;5079519;28;19963;-77
2023/10/08 11:39:22;;;;;;;;;;;;;;;5.66;68.09;96969.69;5095206;28;19920;-82
2023/10/08 11:41:57;;;;;;;;;;;;;;;5.61;68.14;96958.72;5078590;28;19927;-80
2023/10/08 11:44:30;;;;;;;;;;;;;;;5.49;67.97;96961.69;5088729;28;19915;-75
2023/10/08 11:47:04;;;;;;;;;;;;;;;5.39;68.33;96962.00;5073063;28;20011;-76
2023/10/08 11:49:36;;;;;;;;;;;;;;;5.38;68.44;96965.47;5105069;28;19903;-85
2023/10/08 11:52:11;;;;;;;;;;;;;;;5.41;68.84;96962.78;5098206;28;19916;-82
2023/10/08 11:55:01;;;;;;;;;;;;;;;5.35;68.70;96955.25;5082698;28;19916;-79
2023/10/08 11:58:17;;;;;;;;;;;;;;;5.32;68.71;96964.81;5089507;28;19920;-82
2023/10/08 12:00:25;;;;;;;;;;;;;;;5.32;69.31;96965.69;5079380;28;19904;-79
2023/10/08 12:02:55;;;;;;;;;;;;;;;5.30;69.24;96975.19;5088194;28;19927;-86
2023/10/08 12:05:34;;;;;;;;;;;;;;;5.23;69.50;96971.13;5061727;28;19900;-83
2023/10/08 12:08:31;;;;;;;;;;;;;;;5.03;70.13;96967.44;5088760;28;19931;-75
2023/10/08 12:11:11;;;;;;;;;;;;;;;4.90;69.98;96973.91;5085257;28;19916;-81
2023/10/08 12:13:38;;;;;;;;;;;;;;;4.81;69.98;96975.03;5075051;28;19924;-75
2023/10/08 12:16:29;;;;;;;;;;;;;;;4.75;70.44;96962.31;5110439;28;20026;-77
2023/10/08 12:18:58;;;;;;;;;;;;;;;4.62;70.55;96967.00;5093954;28;19916;-78
2023/10/08 12:21:40;;;;;;;;;;;;;;;4.53;71.28;96979.25;5147158;22;19952;-81
2023/10/08 12:24:19;;;;;;;;;;;;;;;4.44;71.58;96989.84;5034454;28;19973;-77
2023/10/08 12:26:51;;;;;;;;;;;;;;;4.40;71.89;96985.66;5059175;28;19917;-76
2023/10/08 12:29:18;;;;;;;;;;;;;;;4.43;71.35;96988.16;5032200;28;19920;-80
2023/10/08 12:31:48;;;;;;;;;;;;;;;4.39;71.93;96988.28;5028482;28;19921;-77
2023/10/08 12:34:23;;;;;;;;;;;;;;;4.35;71.81;96983.22;5037665;28;19897;-81
2023/10/08 12:36:50;;;;;;;;;;;;;;;4.32;72.15;96985.03;5049873;28;19925;-80
2023/10/08 12:39:28;;;;;;;;;;;;;;;4.27;72.37;96979.19;5058777;28;20413;-79
2023/10/08 12:45:11;;;;;;;;;;;;;;;4.19;72.72;96962.22;5032776;28;19918;-83
2023/10/08 12:47:43;;;;;;;;;;;;;;;4.15;72.17;96978.63;5051778;28;20192;-77
2023/10/08 12:50:34;;;;;;;;;;;;;;;4.14;72.76;96979.53;5048571;28;19944;-79
2023/10/08 12:53:04;;;;;;;;;;;;;;;4.12;72.54;96988.19;5041009;28;19921;-80
2023/10/08 12:55:39;;;;;;;;;;;;;;;4.03;72.65;96987.53;5020028;28;19948;-82
2023/10/08 12:58:14;;;;;;;;;;;;;;;3.97;73.10;96987.72;5070639;28;19927;-84
2023/10/08 13:00:49;;;;;;;;;;;;;;;3.98;73.92;96994.53;5055072;28;19917;-81
2023/10/08 13:03:22;;;;;;;;;;;;;;;3.95;73.99;96986.94;5028978;28;19917;-77
2023/10/08 13:05:52;;;;;;;;;;;;;;;3.97;73.82;96992.88;5049232;28;19917;-81
2023/10/08 13:08:21;;;;;;;;;;;;;;;3.96;73.76;96990.31;5034270;28;19912;-78
2023/10/08 13:10:51;;;;;;;;;;;;;;;3.94;73.46;96994.66;5044667;28;19924;-77
2023/10/08 13:13:19;;;;;;;;;;;;;;;3.94;73.90;96989.53;5031723;28;19924;-81
2023/10/08 13:15:47;;;;;;;;;;;;;;;3.94;73.69;96992.97;5048225;28;19932;-81
2023/10/08 13:18:22;;;;;;;;;;;;;;;3.97;73.98;96981.72;5034448;28;19924;-85
2023/10/08 13:20:48;;;;;;;;;;;;;;;3.92;73.50;96989.56;5049609;28;19901;-77
2023/10/08 13:23:15;;;;;;;;;;;;;;;3.95;74.09;96996.34;5052576;28;19909;-82
2023/10/08 13:25:46;;;;;;;;;;;;;;;3.91;74.73;96993.03;5055581;28;19930;-79
2023/10/08 13:28:15;;;;;;;;;;;;;;;3.90;74.63;96991.34;5033861;28;19917;-81
2023/10/08 13:30:52;;;;;;;;;;;;;;;3.85;73.95;96983.75;5028150;28;19948;-81
2023/10/08 13:33:30;;;;;;;;;;;;;;;3.85;74.41;97003.47;5041964;28;19916;-73
2023/10/08 13:36:08;;;;;;;;;;;;;;;3.82;74.62;96986.41;5020930;28;20008;-80
2023/10/08 13:38:45;;;;;;;;;;;;;;;;;;;;;
2023/10/08 13:41:15;;;;;;;;;;;;;;;3.65;75.24;96986.84;5045001;28;19921;-79
2023/10/08 13:43:47;;;;;;;;;;;;;;;3.61;74.94;96985.22;5046491;28;19924;-76
2023/10/08 13:46:48;;;;;;;;;;;;;;;3.64;75.43;96985.16;5041832;28;19917;-74
2023/10/08 13:49:18;;;;;;;;;;;;;;;3.59;75.43;96987.84;5020976;28;19925;-78
2023/10/08 13:54:51;;;;;;;;;;;;;;;3.61;75.30;96988.66;5034677;28;19927;-80
2023/10/08 13:57:21;;;;;;;;;;;;;;;3.59;75.57;96984.41;5030557;28;19921;-79
2023/10/08 13:59:47;;;;;;;;;;;;;;;3.52;75.82;96988.88;5048643;28;19917;-79
2023/10/08 14:02:45;;;;;;;;;;;;;;;3.45;75.88;96988.19;5045918;28;19917;-79
2023/10/08 14:05:33;;;;;;;;;;;;;;;3.40;75.77;96992.59;5045042;28;19917;-78
2023/10/08 14:08:15;;;;;;;;;;;;;;;3.39;75.74;96979.81;5025815;28;19928;-74
2023/10/08 14:10:44;;;;;;;;;;;;;;;3.34;75.99;96992.75;5015322;28;19921;-82
2023/10/08 14:13:19;;;;;;;;;;;;;;;3.35;76.41;96985.91;5049424;28;19923;-80
2023/10/08 14:15:55;;;;;;;;;;;;;;;3.31;76.34;96980.84;5049364;28;19928;-80
2023/10/08 14:18:28;;;;;;;;;;;;;;;3.28;76.35;96970.63;5060737;28;19924;-83
2023/10/08 14:20:55;;;;;;;;;;;;;;;3.26;76.61;96967.25;5045917;28;19916;-79
2023/10/08 14:23:24;;;;;;;;;;;;;;;3.22;76.32;96975.91;5047607;28;19927;-80
2023/10/08 14:26:03;;;;;;;;;;;;;;;3.17;76.52;96975.19;5041121;28;19917;-79
2023/10/08 14:28:50;;;;;;;;;;;;;;;3.16;76.46;96973.50;5062233;28;19959;-81
2023/10/08 14:31:24;;;;;;;;;;;;;;;3.18;76.75;96979.47;5048365;28;19960;-80
2023/10/08 14:34:05;;;;;;;;;;;;;;;3.17;76.90;96976.03;5059785;28;20398;-81
2023/10/08 14:44:50;;;;;;;;;;;;;;;3.05;76.67;96989.19;5049471;28;19984;-80
2023/10/08 14:47:20;;;;;;;;;;;;;;;3.03;77.03;96988.38;5036797;28;19923;-81
2023/10/08 14:49:47;;;;;;;;;;;;;;;2.98;76.87;96970.47;5034927;28;19954;-81
2023/10/08 14:52:13;;;;;;;;;;;;;;;2.96;77.04;96979.09;5056205;28;19916;-80
2023/10/08 14:54:42;;;;;;;;;;;;;;;2.79;77.26;96941.81;5049784;28;19960;-80
2023/10/08 14:57:12;;;;;;;;;;;;;;;2.99;77.06;96991.88;5046738;28;19924;-77